Time,TemperatureF,DewpointF,PressureIn,WindDirection,WindDirectionDegrees,WindSpeedMPH,WindSpeedGustMPH,Humidity,HourlyPrecipIn,Conditions,Clouds,dailyrainin,SolarRadiationWatts/m^2,SoftwareType,DateUTC
2013-06-18 00:22:00,59.0,40.0,-100.00,WNW,291,7.0,14.0,50,0.00,,,0.00,0.000000,,2013-06-18 07:22:00,
2013-06-18 00:33:00,59.0,40.0,-100.00,WNW,291,7.0,14.0,50,0.00,,,0.00,0.000000,,2013-06-18 07:33:00,
2013-06-18 00:43:00,59.0,40.0,-100.00,WNW,291,7.0,14.0,50,0.00,,,0.00,0.000000,,2013-06-18 07:43:00,
2013-06-18 00:53:00,59.0,40.0,-100.00,WNW,291,7.0,14.0,50,0.00,,,0.00,0.000000,,2013-06-18 07:53:00,
2013-06-18 01:00:00,60.0,40.0,-100.00,NW,304,3.0,20.0,47,-99.99,,,0.00,0.000000,,2013-06-18 08:00:00,
2013-06-18 01:23:00,60.0,40.0,-100.00,NW,304,3.0,20.0,47,-99.99,,,0.00,0.000000,,2013-06-18 08:23:00,
2013-06-18 01:33:00,60.0,40.0,-100.00,NW,304,3.0,20.0,47,-99.99,,,0.00,0.000000,,2013-06-18 08:33:00,
2013-06-18 01:43:00,60.0,40.0,-100.00,NW,304,3.0,20.0,47,-99.99,,,0.00,0.000000,,2013-06-18 08:43:00,
2013-06-18 01:52:00,60.0,40.0,-100.00,NW,304,3.0,20.0,47,-99.99,,,0.00,0.000000,,2013-06-18 08:52:00,
2013-06-18 02:00:00,59.0,35.0,-100.00,WNW,284,7.0,19.0,40,0.00,,,-99.99,0.000000,,2013-06-18 09:00:00,
2013-06-18 02:34:00,59.0,35.0,-100.00,WNW,284,7.0,19.0,40,0.00,,,-99.99,0.000000,,2013-06-18 09:34:00,
2013-06-18 02:43:00,59.0,35.0,-100.00,WNW,284,7.0,19.0,40,0.00,,,-99.99,0.000000,,2013-06-18 09:43:00,
2013-06-18 02:53:00,59.0,35.0,-100.00,WNW,284,7.0,19.0,40,0.00,,,-99.99,0.000000,,2013-06-18 09:53:00,
2013-06-18 03:22:00,59.0,35.0,-100.00,SSE,151,5.0,21.0,40,0.00,,,0.00,0.000000,,2013-06-18 10:22:00,
2013-06-18 03:33:00,59.0,35.0,-100.00,SSE,151,5.0,21.0,40,0.00,,,0.00,0.000000,,2013-06-18 10:33:00,
2013-06-18 03:43:00,59.0,35.0,-100.00,SSE,151,5.0,21.0,40,0.00,,,0.00,0.000000,,2013-06-18 10:43:00,
2013-06-18 03:53:00,59.0,35.0,-100.00,SSE,151,5.0,21.0,40,0.00,,,0.00,0.000000,,2013-06-18 10:53:00,
2013-06-18 04:22:00,58.0,32.0,-100.00,West,265,5.0,19.0,37,0.00,,,0.00,0.000000,,2013-06-18 11:22:00,
2013-06-18 04:32:00,58.0,32.0,-100.00,West,265,5.0,19.0,37,0.00,,,0.00,0.000000,,2013-06-18 11:32:00,
2013-06-18 04:43:00,58.0,32.0,-100.00,West,265,5.0,19.0,37,0.00,,,0.00,0.000000,,2013-06-18 11:43:00,
2013-06-18 04:52:00,58.0,32.0,-100.00,West,265,5.0,19.0,37,0.00,,,0.00,0.000000,,2013-06-18 11:52:00,
2013-06-18 05:00:00,58.0,34.0,-100.00,WNW,297,2.0,18.0,41,-99.99,,,0.00,0.000000,,2013-06-18 12:00:00,
2013-06-18 05:22:00,58.0,34.0,-100.00,WNW,297,2.0,18.0,41,-99.99,,,0.00,0.000000,,2013-06-18 12:22:00,
2013-06-18 05:33:00,58.0,34.0,-100.00,WNW,297,2.0,18.0,41,-99.99,,,0.00,0.000000,,2013-06-18 12:33:00,
2013-06-18 05:43:00,58.0,34.0,-100.00,WNW,297,2.0,18.0,41,-99.99,,,0.00,0.000000,,2013-06-18 12:43:00,
2013-06-18 05:52:00,58.0,34.0,-100.00,WNW,297,2.0,18.0,41,-99.99,,,0.00,0.000000,,2013-06-18 12:52:00,
2013-06-18 06:00:00,56.0,34.0,-100.00,NNW,330,2.0,14.0,43,-99.99,,,0.00,0.000000,,2013-06-18 13:00:00,
2013-06-18 06:22:00,56.0,34.0,-100.00,NNW,330,2.0,14.0,43,-99.99,,,0.00,0.000000,,2013-06-18 13:22:00,
2013-06-18 06:33:00,56.0,34.0,-100.00,NNW,330,2.0,14.0,43,-99.99,,,0.00,0.000000,,2013-06-18 13:33:00,
2013-06-18 06:43:00,56.0,34.0,-100.00,NNW,330,2.0,14.0,43,-99.99,,,0.00,0.000000,,2013-06-18 13:43:00,
2013-06-18 06:53:00,56.0,34.0,-100.00,NNW,330,2.0,14.0,43,-99.99,,,0.00,0.000000,,2013-06-18 13:53:00,
2013-06-18 07:00:00,54.0,27.0,-100.00,NNW,343,2.0,7.0,35,-99.99,,,0.00,3.000000,,2013-06-18 14:00:00,
2013-06-18 07:22:00,54.0,27.0,-100.00,NNW,343,2.0,7.0,35,-99.99,,,0.00,3.000000,,2013-06-18 14:22:00,
2013-06-18 07:33:00,54.0,27.0,-100.00,NNW,343,2.0,7.0,35,-99.99,,,0.00,3.000000,,2013-06-18 14:33:00,
2013-06-18 07:43:00,54.0,27.0,-100.00,NNW,343,2.0,7.0,35,-99.99,,,0.00,3.000000,,2013-06-18 14:43:00,
2013-06-18 07:53:00,54.0,27.0,-100.00,NNW,343,2.0,7.0,35,-99.99,,,0.00,3.000000,,2013-06-18 14:53:00,
2013-06-18 08:00:00,61.0,29.0,-100.00,WNW,303,3.0,6.0,29,-99.99,,,0.00,111.000000,,2013-06-18 15:00:00,
2013-06-18 08:22:00,61.0,29.0,-100.00,WNW,303,3.0,6.0,29,-99.99,,,0.00,111.000000,,2013-06-18 15:22:00,
2013-06-18 08:33:00,61.0,29.0,-100.00,WNW,303,3.0,6.0,29,-99.99,,,0.00,111.000000,,2013-06-18 15:33:00,
2013-06-18 08:43:00,61.0,29.0,-100.00,WNW,303,3.0,6.0,29,-99.99,,,0.00,111.000000,,2013-06-18 15:43:00,
2013-06-18 08:53:00,61.0,29.0,-100.00,WNW,303,3.0,6.0,29,-99.99,,,0.00,111.000000,,2013-06-18 15:53:00,
2013-06-18 09:00:00,66.0,31.0,-100.00,NNW,334,3.0,9.0,27,0.00,,,0.00,375.000000,,2013-06-18 16:00:00,
2013-06-18 09:23:00,66.0,31.0,-100.00,NNW,334,3.0,9.0,27,0.00,,,0.00,375.000000,,2013-06-18 16:23:00,
2013-06-18 09:33:00,66.0,31.0,-100.00,NNW,334,3.0,9.0,27,0.00,,,0.00,375.000000,,2013-06-18 16:33:00,
2013-06-18 09:43:00,66.0,31.0,-100.00,NNW,334,3.0,9.0,27,0.00,,,0.00,375.000000,,2013-06-18 16:43:00,
2013-06-18 09:53:00,66.0,31.0,-100.00,NNW,334,3.0,9.0,27,0.00,,,0.00,375.000000,,2013-06-18 16:53:00,
2013-06-18 10:00:00,70.0,22.0,-100.00,NNW,339,2.0,15.0,16,0.00,,,0.00,605.000000,,2013-06-18 17:00:00,
2013-06-18 10:22:00,70.0,22.0,-100.00,NNW,339,2.0,15.0,16,0.00,,,0.00,605.000000,,2013-06-18 17:22:00,
2013-06-18 10:34:00,70.0,22.0,-100.00,NNW,339,2.0,15.0,16,0.00,,,0.00,605.000000,,2013-06-18 17:34:00,
2013-06-18 10:43:00,70.0,22.0,-100.00,NNW,339,2.0,15.0,16,0.00,,,0.00,605.000000,,2013-06-18 17:43:00,
2013-06-18 10:53:00,70.0,22.0,-100.00,NNW,339,2.0,15.0,16,0.00,,,0.00,605.000000,,2013-06-18 17:53:00,
2013-06-18 11:00:00,77.0,27.0,-100.00,SW,233,3.0,10.0,16,0.00,,,0.00,810.000000,,2013-06-18 18:00:00,
2013-06-18 11:22:00,77.0,27.0,-100.00,SW,233,3.0,10.0,16,0.00,,,0.00,810.000000,,2013-06-18 18:22:00,
2013-06-18 11:33:00,77.0,27.0,-100.00,SW,233,3.0,10.0,16,0.00,,,0.00,810.000000,,2013-06-18 18:33:00,
2013-06-18 11:42:00,77.0,27.0,-100.00,SW,233,3.0,10.0,16,0.00,,,0.00,810.000000,,2013-06-18 18:42:00,
2013-06-18 11:53:00,77.0,27.0,-100.00,SW,233,3.0,10.0,16,0.00,,,0.00,810.000000,,2013-06-18 18:53:00,
2013-06-18 12:00:00,78.0,21.0,-100.00,NW,320,2.0,12.0,12,0.00,,,-99.99,979.000000,,2013-06-18 19:00:00,
2013-06-18 12:22:00,78.0,21.0,-100.00,NW,320,2.0,12.0,12,0.00,,,-99.99,979.000000,,2013-06-18 19:22:00,
2013-06-18 12:33:00,78.0,21.0,-100.00,NW,320,2.0,12.0,12,0.00,,,-99.99,979.000000,,2013-06-18 19:33:00,
2013-06-18 12:43:00,78.0,21.0,-100.00,NW,320,2.0,12.0,12,0.00,,,-99.99,979.000000,,2013-06-18 19:43:00,
2013-06-18 12:52:00,78.0,21.0,-100.00,NW,320,2.0,12.0,12,0.00,,,-99.99,979.000000,,2013-06-18 19:52:00,
2013-06-18 13:00:00,82.0,24.0,-100.00,NNW,342,4.0,11.0,12,0.00,,,0.00,1087.000000,,2013-06-18 20:00:00,
2013-06-18 13:23:00,82.0,24.0,-100.00,NNW,342,4.0,11.0,12,0.00,,,0.00,1087.000000,,2013-06-18 20:23:00,
2013-06-18 13:33:00,82.0,24.0,-100.00,NNW,342,4.0,11.0,12,0.00,,,0.00,1087.000000,,2013-06-18 20:33:00,
2013-06-18 13:43:00,82.0,24.0,-100.00,NNW,342,4.0,11.0,12,0.00,,,0.00,1087.000000,,2013-06-18 20:43:00,
2013-06-18 13:52:00,82.0,24.0,-100.00,NNW,342,4.0,11.0,12,0.00,,,0.00,1087.000000,,2013-06-18 20:52:00,
2013-06-18 14:00:00,84.0,28.0,-100.00,West,279,4.0,12.0,13,0.00,,,0.00,1133.000000,,2013-06-18 21:00:00,
2013-06-18 14:23:00,84.0,28.0,-100.00,West,279,4.0,12.0,13,0.00,,,0.00,1133.000000,,2013-06-18 21:23:00,
2013-06-18 14:33:00,84.0,28.0,-100.00,West,279,4.0,12.0,13,0.00,,,0.00,1133.000000,,2013-06-18 21:33:00,
2013-06-18 14:43:00,84.0,28.0,-100.00,West,279,4.0,12.0,13,0.00,,,0.00,1133.000000,,2013-06-18 21:43:00,
2013-06-18 14:52:00,84.0,28.0,-100.00,West,279,4.0,12.0,13,0.00,,,0.00,1133.000000,,2013-06-18 21:52:00,
2013-06-18 15:22:00,84.0,33.0,-100.00,NW,305,7.0,20.0,16,0.00,,,0.00,1134.000000,,2013-06-18 22:22:00,
2013-06-18 15:34:00,84.0,33.0,-100.00,NW,305,7.0,20.0,16,0.00,,,0.00,1134.000000,,2013-06-18 22:34:00,
2013-06-18 15:43:00,84.0,33.0,-100.00,NW,305,7.0,20.0,16,0.00,,,0.00,1134.000000,,2013-06-18 22:43:00,
2013-06-18 15:53:00,84.0,33.0,-100.00,NW,305,7.0,20.0,16,0.00,,,0.00,1134.000000,,2013-06-18 22:53:00,
2013-06-18 16:00:00,76.0,22.0,-100.00,NW,307,6.0,35.0,13,0.00,,,0.00,1077.000000,,2013-06-18 23:00:00,
2013-06-18 16:23:00,76.0,22.0,-100.00,NW,307,6.0,35.0,13,0.00,,,0.00,1077.000000,,2013-06-18 23:23:00,
2013-06-18 16:38:00,76.0,22.0,-100.00,NW,307,6.0,35.0,13,0.00,,,0.00,1077.000000,,2013-06-18 23:38:00,
2013-06-18 16:48:00,76.0,22.0,-100.00,NW,307,6.0,35.0,13,0.00,,,0.00,1077.000000,,2013-06-18 23:48:00,
2013-06-18 16:53:00,76.0,22.0,-100.00,NW,307,6.0,35.0,13,0.00,,,0.00,1077.000000,,2013-06-18 23:53:00,
2013-06-18 17:00:00,78.0,25.0,-100.00,NNW,329,6.0,24.0,14,0.00,,,0.00,960.000000,,2013-06-19 00:00:00,
2013-06-18 17:22:00,78.0,25.0,-100.00,NNW,329,6.0,24.0,14,0.00,,,0.00,960.000000,,2013-06-19 00:22:00,
2013-06-18 17:33:00,78.0,25.0,-100.00,NNW,329,6.0,24.0,14,0.00,,,0.00,960.000000,,2013-06-19 00:33:00,
2013-06-18 17:43:00,78.0,25.0,-100.00,NNW,329,6.0,24.0,14,0.00,,,0.00,960.000000,,2013-06-19 00:43:00,
2013-06-18 17:53:00,78.0,25.0,-100.00,NNW,329,6.0,24.0,14,0.00,,,0.00,960.000000,,2013-06-19 00:53:00,
2013-06-18 18:00:00,75.0,30.0,-100.00,NW,310,4.0,22.0,19,0.00,,,0.00,783.000000,,2013-06-19 01:00:00,
2013-06-18 18:22:00,75.0,30.0,-100.00,NW,310,4.0,22.0,19,0.00,,,0.00,783.000000,,2013-06-19 01:22:00,
2013-06-18 18:32:00,75.0,30.0,-100.00,NW,310,4.0,22.0,19,0.00,,,0.00,783.000000,,2013-06-19 01:32:00,
2013-06-18 18:43:00,75.0,30.0,-100.00,NW,310,4.0,22.0,19,0.00,,,0.00,783.000000,,2013-06-19 01:43:00,
2013-06-18 18:53:00,75.0,30.0,-100.00,NW,310,4.0,22.0,19,0.00,,,0.00,783.000000,,2013-06-19 01:53:00,
2013-06-18 19:00:00,74.0,34.0,-100.00,WNW,303,7.0,23.0,23,0.00,,,0.00,312.000000,,2013-06-19 02:00:00,
2013-06-18 19:32:00,74.0,34.0,-100.00,WNW,303,7.0,23.0,23,0.00,,,0.00,312.000000,,2013-06-19 02:32:00,
2013-06-18 19:42:00,74.0,34.0,-100.00,WNW,303,7.0,23.0,23,0.00,,,0.00,312.000000,,2013-06-19 02:42:00,
2013-06-18 19:52:00,74.0,34.0,-100.00,WNW,303,7.0,23.0,23,0.00,,,0.00,312.000000,,2013-06-19 02:52:00,
2013-06-18 20:00:00,65.0,29.0,-100.00,WNW,287,8.0,28.0,26,0.00,,,0.00,30.000000,,2013-06-19 03:00:00,
2013-06-18 20:22:00,65.0,29.0,-100.00,WNW,287,8.0,28.0,26,0.00,,,0.00,30.000000,,2013-06-19 03:22:00,
2013-06-18 20:33:00,65.0,29.0,-100.00,WNW,287,8.0,28.0,26,0.00,,,0.00,30.000000,,2013-06-19 03:33:00,
2013-06-18 20:43:00,65.0,29.0,-100.00,WNW,287,8.0,28.0,26,0.00,,,0.00,30.000000,,2013-06-19 03:43:00,
2013-06-18 20:52:00,65.0,29.0,-100.00,WNW,287,8.0,28.0,26,0.00,,,0.00,30.000000,,2013-06-19 03:52:00,
2013-06-18 21:00:00,60.0,34.0,-100.00,WNW,291,11.0,30.0,37,0.00,,,0.00,17.000000,,2013-06-19 04:00:00,
2013-06-18 21:23:00,60.0,34.0,-100.00,WNW,291,11.0,30.0,37,0.00,,,0.00,17.000000,,2013-06-19 04:23:00,
2013-06-18 21:33:00,60.0,34.0,-100.00,WNW,291,11.0,30.0,37,0.00,,,0.00,17.000000,,2013-06-19 04:33:00,
2013-06-18 21:43:00,60.0,34.0,-100.00,WNW,291,11.0,30.0,37,0.00,,,0.00,17.000000,,2013-06-19 04:43:00,
2013-06-18 21:53:00,60.0,34.0,-100.00,WNW,291,11.0,30.0,37,0.00,,,0.00,17.000000,,2013-06-19 04:53:00,
2013-06-18 22:00:00,59.0,40.0,-100.00,WNW,284,10.0,31.0,49,0.00,,,0.00,1.000000,,2013-06-19 05:00:00,
2013-06-18 22:23:00,59.0,40.0,-100.00,WNW,284,10.0,31.0,49,0.00,,,0.00,1.000000,,2013-06-19 05:23:00,
2013-06-18 22:32:00,59.0,40.0,-100.00,WNW,284,10.0,31.0,49,0.00,,,0.00,1.000000,,2013-06-19 05:32:00,
2013-06-18 22:43:00,59.0,40.0,-100.00,WNW,284,10.0,31.0,49,0.00,,,0.00,1.000000,,2013-06-19 05:43:00,
2013-06-18 22:52:00,59.0,40.0,-100.00,WNW,284,10.0,31.0,49,0.00,,,0.00,1.000000,,2013-06-19 05:52:00,
2013-06-18 23:00:00,55.0,38.0,-100.00,WNW,293,8.0,27.0,52,0.00,,,0.00,0.000000,,2013-06-19 06:00:00,
2013-06-18 23:34:00,55.0,38.0,-100.00,WNW,293,8.0,27.0,52,0.00,,,0.00,0.000000,,2013-06-19 06:34:00,
2013-06-18 23:43:00,55.0,38.0,-100.00,WNW,293,8.0,27.0,52,0.00,,,0.00,0.000000,,2013-06-19 06:43:00,
2013-06-18 23:52:00,55.0,38.0,-100.00,WNW,293,8.0,27.0,52,0.00,,,0.00,0.000000,,2013-06-19 06:52:00,